ADDS METAR Data

Data at: 0510 UTC 20 Apr 2018

METAR for:KWST (Westerly State Arpt, RI, US)
Text:KWST 200453Z AUTO VRB05KT 10SM OVC085 04/M01 A2991 RMK AO2 SLP129 T00391011 400720039
Temperature: 3.9°C ( 39°F)
Dewpoint: -1.1°C ( 30°F) [RH = 70%]
Pressure (altimeter):29.91 inches Hg (1013.0 mb) [Sea level pressure: 1012.9 mb]
Winds:variable direction winds at 6 MPH (5 knots; 2.6 m/s)
Visibility:10 or more sm (16+ km)
Ceiling:8500 feet AGL
Clouds: overcast cloud deck at 8500 feet AGL
QC Flag:automated observation with no human augmentation